createdAt,value
2016-07-15T00:00:14.005Z,14.07
2016-07-15T00:02:13.309Z,14.1
2016-07-15T00:03:14.038Z,14.14
2016-07-15T00:04:14.022Z,14
2016-07-15T00:05:28.174Z,14.09
2016-07-15T00:06:28.197Z,13.99
2016-07-15T00:07:13.534Z,14
2016-07-15T00:08:13.530Z,13.97
2016-07-15T00:09:13.332Z,14.03
2016-07-15T00:10:13.342Z,14.03
2016-07-15T00:11:14.064Z,14.07
2016-07-15T00:12:14.072Z,14.02
2016-07-15T00:13:14.082Z,14.07
2016-07-15T00:14:13.348Z,14.04
2016-07-15T00:15:14.077Z,13.99
2016-07-15T00:16:13.604Z,13.97
2016-07-15T00:17:28.233Z,13.96
2016-07-15T00:18:13.380Z,14.03
2016-07-15T00:19:13.376Z,13.99
2016-07-15T00:20:13.379Z,14
2016-07-15T00:21:14.312Z,14.04
2016-07-15T00:22:14.114Z,14
2016-07-15T00:23:14.109Z,13.88
2016-07-15T00:24:13.412Z,13.99
2016-07-15T00:25:13.413Z,13.95
2016-07-15T00:26:13.420Z,13.87
2016-07-15T00:27:14.345Z,13.89
2016-07-15T00:28:13.447Z,13.89
2016-07-15T00:29:13.442Z,13.87
2016-07-15T00:30:13.433Z,13.87
2016-07-15T00:31:13.657Z,13.92
2016-07-15T00:32:13.645Z,13.88
2016-07-15T00:33:13.428Z,13.88
2016-07-15T00:34:14.392Z,13.89
2016-07-15T00:35:14.911Z,13.84
2016-07-15T00:36:13.446Z,13.88
2016-07-15T00:37:13.648Z,13.92
2016-07-15T00:38:13.465Z,13.95
2016-07-15T00:39:13.458Z,13.87
2016-07-15T00:40:13.465Z,13.81
2016-07-15T00:41:13.470Z,13.97
2016-07-15T00:42:13.582Z,13.92
2016-07-15T00:43:14.185Z,13.88
2016-07-15T00:44:14.196Z,13.81
2016-07-15T00:45:14.206Z,13.92
2016-07-15T00:46:13.695Z,13.88
2016-07-15T00:47:13.697Z,13.96
2016-07-15T00:48:13.696Z,13.87
2016-07-15T00:49:13.512Z,13.87
2016-07-15T00:50:14.223Z,13.87
2016-07-15T00:51:13.525Z,13.84
2016-07-15T00:52:14.237Z,13.87
2016-07-15T00:53:14.250Z,13.85
2016-07-15T00:54:14.259Z,13.88
2016-07-15T00:55:14.262Z,13.84
2016-07-15T00:56:13.528Z,13.89
2016-07-15T00:57:15.004Z,13.89
2016-07-15T00:58:15.007Z,13.85
2016-07-15T00:59:13.943Z,13.84
2016-07-15T01:00:14.296Z,13.88
2016-07-15T01:01:15.217Z,13.87
2016-07-15T01:02:13.570Z,13.87
2016-07-15T01:03:14.269Z,13.91
2016-07-15T01:04:13.792Z,13.91
2016-07-15T01:05:14.286Z,13.92
2016-07-15T01:06:14.318Z,13.88
2016-07-15T01:07:14.304Z,13.88
2016-07-15T01:08:13.583Z,13.95
2016-07-15T01:09:14.079Z,13.91
2016-07-15T01:10:13.617Z,13.92
2016-07-15T01:11:29.173Z,13.89
2016-07-15T01:12:13.602Z,13.87
2016-07-15T01:13:13.612Z,13.92
2016-07-15T01:14:29.198Z,13.89
2016-07-15T01:15:29.204Z,13.91
2016-07-15T01:16:14.348Z,13.87
2016-07-15T01:17:14.360Z,13.91
2016-07-15T01:18:14.369Z,14.03
2016-07-15T01:19:15.337Z,13.95
2016-07-15T01:21:15.099Z,13.97
2016-07-15T01:22:14.556Z,13.89
2016-07-15T01:23:13.652Z,13.92
2016-07-15T01:24:14.565Z,13.91
2016-07-15T01:25:14.410Z,14
2016-07-15T01:26:13.691Z,13.91
2016-07-15T01:27:13.668Z,13.89
2016-07-15T01:28:13.672Z,13.89
2016-07-15T01:29:13.678Z,13.96
2016-07-15T01:30:14.395Z,14.02
2016-07-15T01:31:28.545Z,14
2016-07-15T01:32:14.415Z,14
2016-07-15T01:33:13.695Z,13.99
2016-07-15T01:34:14.424Z,13.95
2016-07-15T01:35:14.432Z,14
2016-07-15T01:36:15.148Z,13.91
2016-07-15T01:37:14.438Z,14.04
2016-07-15T01:38:13.724Z,14.03
2016-07-15T01:39:13.723Z,13.95
2016-07-15T01:40:13.729Z,13.99
2016-07-15T01:41:13.951Z,13.95
2016-07-15T01:42:14.748Z,13.99
2016-07-15T01:43:28.603Z,13.99
2016-07-15T01:44:13.744Z,13.97
2016-07-15T01:45:13.750Z,13.99
2016-07-15T01:46:14.661Z,14
2016-07-15T01:47:13.787Z,14.02
2016-07-15T01:48:13.963Z,13.99
2016-07-15T01:49:14.688Z,14
2016-07-15T01:50:15.416Z,14.02
2016-07-15T01:51:14.496Z,13.97
2016-07-15T01:53:13.782Z,14
2016-07-15T01:54:13.790Z,13.97
2016-07-15T01:55:13.803Z,14.02
2016-07-15T01:56:13.800Z,14.04
2016-07-15T01:57:13.811Z,14.03
2016-07-15T01:58:13.813Z,13.95
2016-07-15T01:59:15.275Z,14.12
2016-07-15T02:00:14.544Z,14.07
2016-07-15T02:01:14.557Z,13.95
2016-07-15T02:02:14.572Z,14.1
2016-07-15T02:03:14.554Z,14.09
2016-07-15T02:04:14.825Z,14.12
2016-07-15T02:05:14.578Z,14.02
2016-07-15T02:06:14.592Z,13.99
2016-07-15T02:07:28.713Z,14.12
2016-07-15T02:08:13.852Z,13.95
2016-07-15T02:09:13.860Z,14.03
2016-07-15T02:10:14.778Z,14.02
2016-07-15T02:11:14.800Z,14
2016-07-15T02:12:14.595Z,14.04
2016-07-15T02:13:14.587Z,14.06
2016-07-15T02:14:14.612Z,14.04
2016-07-15T02:15:14.819Z,14
2016-07-15T02:16:14.104Z,14.02
2016-07-15T02:17:13.896Z,14.06
2016-07-15T02:18:13.909Z,14.03
2016-07-15T02:19:13.903Z,14.04
2016-07-15T02:20:14.626Z,14.03
2016-07-15T02:21:13.922Z,14
2016-07-15T02:22:14.846Z,14.03
2016-07-15T02:23:14.645Z,14.03
2016-07-15T02:24:13.936Z,14.04
2016-07-15T02:25:13.941Z,14.03
2016-07-15T02:27:14.673Z,13.97
2016-07-15T02:28:15.808Z,14.03
2016-07-15T02:29:13.952Z,14.1
2016-07-15T02:30:13.967Z,14.07
2016-07-15T02:32:14.168Z,14.04
2016-07-15T02:34:14.727Z,13.99
2016-07-15T02:35:14.178Z,14.03
2016-07-15T02:36:14.395Z,14.04
2016-07-15T02:37:28.850Z,14.06
2016-07-15T02:38:14.714Z,14.07
2016-07-15T02:39:14.924Z,14.12
2016-07-15T02:40:14.007Z,14.02
2016-07-15T02:41:14.730Z,14.07
2016-07-15T02:42:28.871Z,14.09
2016-07-15T02:43:14.018Z,14.02
2016-07-15T02:44:15.465Z,14.04
2016-07-15T02:45:14.023Z,13.99
2016-07-15T02:46:14.035Z,14.04
2016-07-15T02:47:14.757Z,13.99
2016-07-15T02:48:15.496Z,14.02
2016-07-15T02:49:14.256Z,14.09
2016-07-15T02:50:14.063Z,14.09
2016-07-15T02:51:14.057Z,14.09
2016-07-15T02:52:15.515Z,14.03
2016-07-15T02:53:14.345Z,14.1
2016-07-15T02:54:14.062Z,14.04
2016-07-15T02:55:14.066Z,14.09
2016-07-15T02:56:14.826Z,14
2016-07-15T02:57:14.789Z,14.12
2016-07-15T02:58:14.790Z,14
2016-07-15T02:59:15.000Z,14.12
2016-07-15T03:00:14.804Z,14.07
2016-07-15T03:01:28.965Z,14.09
2016-07-15T03:02:14.102Z,13.99
2016-07-15T03:03:14.831Z,14.07
2016-07-15T03:04:14.356Z,14.04
2016-07-15T03:05:14.119Z,14.06
2016-07-15T03:06:14.127Z,13.99
2016-07-15T03:07:14.142Z,14.06
2016-07-15T03:08:14.130Z,13.97
2016-07-15T03:09:14.873Z,14.06
2016-07-15T03:10:15.078Z,14.02
2016-07-15T03:11:14.871Z,14.07
2016-07-15T03:12:15.090Z,14.02
2016-07-15T03:13:15.613Z,14.02
2016-07-15T03:14:14.153Z,14.04
2016-07-15T03:15:15.100Z,14.03
2016-07-15T03:16:14.166Z,14.09
2016-07-15T03:17:14.922Z,14
2016-07-15T03:18:14.922Z,14.09
2016-07-15T03:19:14.179Z,14.03
2016-07-15T03:20:14.183Z,14.07
2016-07-15T03:21:15.143Z,14
2016-07-15T03:22:15.106Z,13.99
2016-07-15T03:23:14.195Z,13.99
2016-07-15T03:24:14.911Z,14
2016-07-15T03:25:14.920Z,13.95
2016-07-15T03:26:14.934Z,13.99
2016-07-15T03:27:14.940Z,13.99
2016-07-15T03:28:14.644Z,14
2016-07-15T03:29:14.965Z,13.99
2016-07-15T03:31:14.982Z,13.99
2016-07-15T03:32:14.986Z,13.92
2016-07-15T03:33:14.253Z,14
2016-07-15T03:34:14.271Z,14.03
2016-07-15T03:35:14.981Z,13.99
2016-07-15T03:36:15.192Z,14.07
2016-07-15T03:37:29.856Z,13.89
2016-07-15T03:38:14.996Z,14.03
2016-07-15T03:39:15.732Z,13.99
2016-07-15T03:40:15.746Z,14.06
2016-07-15T03:41:15.232Z,14.06
2016-07-15T03:42:15.064Z,13.99
2016-07-15T03:43:14.499Z,14.07
2016-07-15T03:44:14.290Z,14
2016-07-15T03:45:14.307Z,14.09
2016-07-15T03:46:14.509Z,13.99
2016-07-15T03:47:14.313Z,14.07
2016-07-15T03:48:14.311Z,14.02
2016-07-15T03:49:14.330Z,14.02
2016-07-15T03:50:15.053Z,14
2016-07-15T03:51:15.804Z,14.04
2016-07-15T03:52:14.344Z,13.99
2016-07-15T03:53:15.795Z,14.03
2016-07-15T03:54:14.364Z,14.02
2016-07-15T03:55:14.550Z,14.09
2016-07-15T03:56:14.388Z,13.97
2016-07-15T03:57:15.101Z,14.06
2016-07-15T03:58:14.576Z,14.02
2016-07-15T03:59:14.368Z,14.07
2016-07-15T04:00:15.077Z,14.12
2016-07-15T04:01:14.391Z,14.09
2016-07-15T04:02:15.115Z,14.07
2016-07-15T04:03:15.124Z,14.12
2016-07-15T04:04:15.858Z,14.09
2016-07-15T04:05:16.077Z,14.1
2016-07-15T04:06:14.395Z,14.06
2016-07-15T04:07:14.410Z,14.1
2016-07-15T04:08:14.407Z,14.06
2016-07-15T04:09:15.139Z,14.06
2016-07-15T04:10:15.332Z,14.1
2016-07-15T04:11:14.425Z,14.03
2016-07-15T04:12:15.351Z,14.1
2016-07-15T04:13:14.426Z,14.18
2016-07-15T04:14:15.366Z,14.15
2016-07-15T04:15:14.449Z,14.18
2016-07-15T04:16:15.188Z,14.18
2016-07-15T04:17:15.181Z,14.15
2016-07-15T04:18:14.457Z,14.18
2016-07-15T04:19:29.352Z,14.15
2016-07-15T04:20:14.463Z,14.18
2016-07-15T04:21:14.670Z,14.2
2016-07-15T04:22:15.179Z,14.17
2016-07-15T04:23:15.186Z,14.24
2016-07-15T04:24:15.205Z,14.18
2016-07-15T04:25:14.698Z,14.29
2016-07-15T04:26:15.223Z,14.24
2016-07-15T04:27:14.499Z,14.27
2016-07-15T04:28:15.232Z,14.18
2016-07-15T04:29:15.247Z,14.21
2016-07-15T04:30:15.983Z,14.22
2016-07-15T04:31:15.469Z,14.2
2016-07-15T04:32:14.524Z,14.21
2016-07-15T04:33:14.733Z,14.22
2016-07-15T04:34:14.737Z,14.28
2016-07-15T04:35:15.281Z,14.25
2016-07-15T04:36:15.245Z,14.21
2016-07-15T04:37:15.251Z,14.25
2016-07-15T04:38:15.289Z,14.21
2016-07-15T04:39:15.472Z,14.24
2016-07-15T04:40:15.271Z,14.27
2016-07-15T04:41:14.568Z,14.28
2016-07-15T04:42:15.294Z,14.2
2016-07-15T04:43:14.578Z,14.2
2016-07-15T04:44:15.301Z,14.2
2016-07-15T04:45:14.838Z,14.21
2016-07-15T04:46:15.514Z,14.25
2016-07-15T04:47:15.531Z,14.2
2016-07-15T04:48:14.810Z,14.27
2016-07-15T04:49:14.617Z,14.24
2016-07-15T04:50:14.610Z,14.21
2016-07-15T04:51:14.622Z,14.25
2016-07-15T04:52:15.353Z,14.25
2016-07-15T04:53:16.070Z,14.24
2016-07-15T04:54:14.637Z,14.22
2016-07-15T04:55:14.634Z,14.27
2016-07-15T04:56:15.381Z,14.22
2016-07-15T04:57:15.381Z,14.18
2016-07-15T04:58:16.117Z,14.32
2016-07-15T04:59:14.860Z,14.35
2016-07-15T05:00:14.872Z,14.35
2016-07-15T05:01:29.533Z,14.37
2016-07-15T05:02:15.419Z,14.29
2016-07-15T05:03:16.133Z,14.35
2016-07-15T05:04:15.610Z,14.35
2016-07-15T05:05:14.888Z,14.29
2016-07-15T05:06:14.697Z,14.35
2016-07-15T05:07:29.577Z,14.33
2016-07-15T05:08:15.417Z,14.39
2016-07-15T05:09:14.707Z,14.42
2016-07-15T05:10:14.711Z,14.4
2016-07-15T05:11:14.720Z,14.33
2016-07-15T05:12:14.964Z,14.33
2016-07-15T05:13:15.467Z,14.33
2016-07-15T05:14:29.590Z,14.39
2016-07-15T05:15:15.450Z,14.36
2016-07-15T05:16:15.466Z,14.35
2016-07-15T05:17:14.949Z,14.37
2016-07-15T05:18:15.476Z,14.39
2016-07-15T05:19:14.760Z,14.37
2016-07-15T05:21:14.777Z,14.33
2016-07-15T05:22:14.779Z,14.36
2016-07-15T05:23:16.237Z,14.35
2016-07-15T05:24:15.529Z,14.37
2016-07-15T05:25:15.518Z,14.37
2016-07-15T05:26:14.792Z,14.32
2016-07-15T05:27:14.800Z,14.35
2016-07-15T05:28:14.807Z,14.39
2016-07-15T05:29:14.811Z,14.39
2016-07-15T05:30:15.556Z,14.35
2016-07-15T05:31:14.825Z,14.42
2016-07-15T05:32:14.835Z,14.37
2016-07-15T05:33:14.833Z,14.35
2016-07-15T05:34:14.836Z,14.32
2016-07-15T05:35:15.031Z,14.39
2016-07-15T05:36:14.849Z,14.36
2016-07-15T05:37:14.845Z,14.29
2016-07-15T05:38:14.842Z,14.32
2016-07-15T05:39:14.853Z,14.33
2016-07-15T05:40:14.858Z,14.37
2016-07-15T05:41:14.870Z,14.29
2016-07-15T05:42:14.872Z,14.27
2016-07-15T05:43:14.877Z,14.29
2016-07-15T05:44:14.883Z,14.27
2016-07-15T05:45:14.890Z,14.27
2016-07-15T05:46:15.631Z,14.29
2016-07-15T05:47:14.897Z,14.35
2016-07-15T05:48:15.672Z,14.36
2016-07-15T05:49:14.905Z,14.36
2016-07-15T05:50:14.916Z,14.29
2016-07-15T05:51:15.245Z,14.28
2016-07-15T05:52:15.856Z,14.29
2016-07-15T05:53:15.655Z,14.33
2016-07-15T05:54:15.661Z,14.36
2016-07-15T05:55:15.666Z,14.37
2016-07-15T05:56:15.675Z,14.32
2016-07-15T05:57:15.692Z,14.37
2016-07-15T05:58:14.952Z,14.33
2016-07-15T05:59:15.573Z,14.4
2016-07-15T06:00:31.187Z,14.47
2016-07-15T06:01:14.972Z,14.45
2016-07-15T06:02:14.983Z,14.5
2016-07-15T06:03:14.982Z,14.54
2016-07-15T06:04:15.197Z,14.57
2016-07-15T06:05:15.244Z,14.51
2016-07-15T06:06:15.711Z,14.55
2016-07-15T06:07:15.921Z,14.6
2016-07-15T06:08:15.009Z,14.64
2016-07-15T06:09:15.721Z,14.64
2016-07-15T06:10:15.729Z,14.57
2016-07-15T06:11:15.951Z,14.57
2016-07-15T06:12:15.991Z,14.57
2016-07-15T06:13:15.750Z,14.75
2016-07-15T06:14:29.898Z,14.64
2016-07-15T06:15:15.768Z,14.73
2016-07-15T06:16:15.048Z,14.73
2016-07-15T06:17:15.984Z,14.75
2016-07-15T06:18:15.056Z,14.8
2016-07-15T06:19:15.070Z,14.83
2016-07-15T06:20:15.075Z,14.83
2016-07-15T06:21:15.079Z,14.88
2016-07-15T06:23:15.663Z,15.07
2016-07-15T06:24:15.098Z,15.07
2016-07-15T06:25:15.122Z,15.14
2016-07-15T06:26:16.557Z,15.09
2016-07-15T06:27:15.112Z,15.14
2016-07-15T06:28:15.323Z,15.17
2016-07-15T06:29:30.719Z,15.25
2016-07-15T06:30:16.275Z,15.17
2016-07-15T06:31:15.875Z,15.14
2016-07-15T06:32:15.873Z,15.16
2016-07-15T06:33:15.869Z,15.13
2016-07-15T06:34:15.169Z,15.21
2016-07-15T06:35:15.898Z,15.16
2016-07-15T06:36:15.880Z,15.19
2016-07-15T06:37:15.912Z,15.11
2016-07-15T06:38:15.907Z,15.09
2016-07-15T06:39:15.195Z,15.11
2016-07-15T06:40:30.783Z,15.07
2016-07-15T06:41:15.186Z,15.13
2016-07-15T06:42:15.532Z,15.09
2016-07-15T06:43:15.949Z,15.09
2016-07-15T06:44:15.459Z,15.07
2016-07-15T06:45:17.208Z,15.07
2016-07-15T06:46:16.607Z,15.01
2016-07-15T06:47:17.532Z,15.06
2016-07-15T06:48:16.680Z,15.02
2016-07-15T06:49:16.948Z,15.02
2016-07-15T06:50:16.470Z,15.02
2016-07-15T06:51:16.686Z,15.03
2016-07-15T06:52:16.902Z,15.1
2016-07-15T06:53:17.268Z,15.14
2016-07-15T06:54:16.522Z,15.07
2016-07-15T06:55:17.327Z,15.09
2016-07-15T06:56:16.510Z,15.11
2016-07-15T06:57:17.040Z,15.06
2016-07-15T06:58:16.421Z,15.06
2016-07-15T06:59:18.256Z,15.11
2016-07-15T07:02:17.350Z,15.07
2016-07-15T07:03:16.346Z,15.11
2016-07-15T07:04:15.355Z,15.14
2016-07-15T07:05:15.333Z,15.09
2016-07-15T07:06:15.347Z,15.07
2016-07-15T07:07:15.372Z,15.1
2016-07-15T07:08:15.364Z,15.07
2016-07-15T07:09:15.388Z,15.09
2016-07-15T07:10:15.389Z,15.06
2016-07-15T07:11:15.367Z,15.16
2016-07-15T07:12:16.120Z,15.19
2016-07-15T07:13:18.992Z,15.14
2016-07-15T07:14:15.393Z,15.11
2016-07-15T07:15:16.153Z,15.1
2016-07-15T07:16:16.165Z,15.19
2016-07-15T07:17:16.445Z,15.17
2016-07-15T07:18:16.152Z,15.17
2016-07-15T07:19:15.795Z,15.25
2016-07-15T07:20:16.379Z,15.28
2016-07-15T07:22:16.834Z,15.27
2016-07-15T07:23:15.986Z,15.28
2016-07-15T07:24:16.219Z,15.29
2016-07-15T07:25:15.717Z,15.31
2016-07-15T07:26:15.551Z,15.32
2016-07-15T07:27:31.040Z,15.49
2016-07-15T07:28:15.483Z,15.5
2016-07-15T07:29:16.460Z,15.51
2016-07-15T07:30:15.493Z,15.6
2016-07-15T07:31:30.371Z,15.49
2016-07-15T07:32:15.501Z,15.64
2016-07-15T07:33:30.384Z,15.56
2016-07-15T07:34:15.523Z,15.69
2016-07-15T07:35:15.531Z,15.59
2016-07-15T07:36:15.537Z,15.64
2016-07-15T07:37:15.538Z,15.65
2016-07-15T07:38:15.557Z,15.68
2016-07-15T07:39:16.495Z,15.68
2016-07-15T07:40:16.311Z,15.72
2016-07-15T07:41:15.772Z,15.68
2016-07-15T07:42:16.381Z,15.89
2016-07-15T07:43:15.782Z,15.84
2016-07-15T07:44:15.586Z,15.92
2016-07-15T07:45:15.601Z,15.96
2016-07-15T07:46:30.462Z,15.89
2016-07-15T07:47:15.894Z,15.93
2016-07-15T07:48:15.611Z,15.97
2016-07-15T07:49:16.341Z,15.9
2016-07-15T07:50:16.384Z,16.01
2016-07-15T07:51:16.550Z,15.94
2016-07-15T07:52:15.841Z,15.94
2016-07-15T07:53:16.492Z,16.04
2016-07-15T07:54:16.217Z,16
2016-07-15T07:55:15.829Z,16.05
2016-07-15T07:56:15.677Z,16
2016-07-15T07:57:15.681Z,16.01
2016-07-15T07:58:15.891Z,16.08
2016-07-15T07:59:15.893Z,16.08
2016-07-15T08:00:30.557Z,16.05
2016-07-15T08:01:16.417Z,16.07
2016-07-15T08:02:17.149Z,16.05
2016-07-15T08:03:15.723Z,16.01
2016-07-15T08:04:15.741Z,16.01
2016-07-15T08:05:15.729Z,16.02
2016-07-15T08:06:15.898Z,16.02
2016-07-15T08:07:16.463Z,16.04
2016-07-15T08:08:16.485Z,15.94
2016-07-15T08:09:16.536Z,16
2016-07-15T08:10:16.486Z,16
2016-07-15T08:11:15.776Z,15.97
2016-07-15T08:12:15.999Z,15.97
2016-07-15T08:13:15.785Z,15.97
2016-07-15T08:14:15.800Z,16.01
2016-07-15T08:15:15.800Z,15.89
2016-07-15T08:16:15.813Z,16.05
2016-07-15T08:17:15.893Z,15.94
2016-07-15T08:18:16.035Z,15.97
2016-07-15T08:19:16.547Z,15.93
2016-07-15T08:20:15.836Z,15.94
2016-07-15T08:21:15.844Z,15.86
2016-07-15T08:22:15.859Z,15.86
2016-07-15T08:23:30.718Z,15.83
2016-07-15T08:24:16.586Z,15.82
2016-07-15T08:25:16.586Z,15.84
2016-07-15T08:26:15.901Z,15.89
2016-07-15T08:27:15.921Z,15.86
2016-07-15T08:29:15.911Z,15.8
2016-07-15T08:30:16.636Z,15.87
2016-07-15T08:31:16.643Z,15.86
2016-07-15T08:32:16.656Z,15.93
2016-07-15T08:33:16.872Z,15.92
2016-07-15T08:34:15.951Z,15.86
2016-07-15T08:35:15.957Z,15.89
2016-07-15T08:36:15.988Z,15.87
2016-07-15T08:37:15.969Z,16.02
2016-07-15T08:38:17.093Z,16.02
2016-07-15T08:39:15.990Z,16.02
2016-07-15T08:40:16.021Z,16.04
2016-07-15T08:41:16.196Z,16.15
2016-07-15T08:42:16.043Z,16.14
2016-07-15T08:43:16.041Z,16.21
2016-07-15T08:44:16.018Z,16.25
2016-07-15T08:45:16.933Z,16.31
2016-07-15T08:46:16.790Z,16.28
2016-07-15T08:47:16.822Z,16.23
2016-07-15T08:48:16.079Z,16.3
2016-07-15T08:49:16.058Z,16.31
2016-07-15T08:50:16.790Z,16.28
2016-07-15T08:51:16.999Z,16.27
2016-07-15T08:52:16.068Z,16.24
2016-07-15T08:53:17.576Z,16.21
2016-07-15T08:54:17.103Z,16.21
2016-07-15T08:55:16.093Z,16.15
2016-07-15T08:56:16.094Z,16.01
2016-07-15T08:57:17.147Z,16.05
2016-07-15T08:58:17.769Z,16.04
2016-07-15T08:59:16.860Z,16.08
2016-07-15T09:00:17.444Z,16.15
2016-07-15T09:01:16.136Z,16.17
2016-07-15T09:02:16.162Z,16.25
2016-07-15T09:03:16.149Z,16.28
2016-07-15T09:04:16.366Z,16.25
2016-07-15T09:05:31.022Z,16.27
2016-07-15T09:06:31.049Z,16.35
2016-07-15T09:07:16.168Z,16.31
2016-07-15T09:08:16.418Z,16.38
2016-07-15T09:09:16.232Z,16.34
2016-07-15T09:10:16.189Z,16.35
2016-07-15T09:11:16.217Z,16.35
2016-07-15T09:12:31.278Z,16.34
2016-07-15T09:13:16.984Z,16.42
2016-07-15T09:14:31.356Z,16.39
2016-07-15T09:15:17.692Z,16.41
2016-07-15T09:16:31.311Z,16.43
2016-07-15T09:17:17.917Z,16.49
2016-07-15T09:18:16.472Z,16.56
2016-07-15T09:19:16.472Z,16.5
2016-07-15T09:20:17.941Z,16.57
2016-07-15T09:21:18.361Z,16.73
2016-07-15T09:22:16.299Z,16.71
2016-07-15T09:23:16.286Z,16.76
2016-07-15T09:24:17.215Z,16.79
2016-07-15T09:25:17.777Z,16.88
2016-07-15T09:26:17.043Z,17.01
2016-07-15T09:27:16.542Z,16.96
2016-07-15T09:28:16.341Z,17.06
2016-07-15T09:29:17.061Z,16.98
2016-07-15T09:30:16.345Z,17.16
2016-07-15T09:31:17.099Z,17.21
2016-07-15T09:32:31.536Z,17.18
2016-07-15T09:33:17.111Z,17.25
2016-07-15T09:34:16.388Z,17.22
2016-07-15T09:35:16.408Z,17.36
2016-07-15T09:36:16.392Z,17.36
2016-07-15T09:37:16.402Z,17.46
2016-07-15T09:38:16.433Z,17.59
2016-07-15T09:39:17.346Z,17.62
2016-07-15T09:40:16.429Z,17.68
2016-07-15T09:41:31.299Z,17.74
2016-07-15T09:42:17.259Z,17.81
2016-07-15T09:43:16.450Z,17.9
2016-07-15T09:44:16.482Z,17.96
2016-07-15T09:45:16.468Z,18.03
2016-07-15T09:46:17.190Z,18.03
2016-07-15T09:47:16.538Z,18.18
2016-07-15T09:48:16.759Z,18.1
2016-07-15T09:49:16.520Z,18.14
2016-07-15T09:50:16.720Z,18.26
2016-07-15T09:51:17.535Z,18.35
2016-07-15T09:52:16.652Z,18.41
2016-07-15T09:53:18.219Z,18.54
2016-07-15T09:54:18.000Z,18.58
2016-07-15T09:55:17.296Z,18.69
2016-07-15T09:56:16.592Z,18.73
2016-07-15T09:57:16.843Z,18.75
2016-07-15T09:58:17.314Z,18.88
2016-07-15T09:59:17.668Z,18.94
2016-07-15T10:00:16.612Z,18.99
2016-07-15T10:01:17.337Z,19.19
2016-07-15T10:02:16.629Z,19.16
2016-07-15T10:03:17.355Z,19.13
2016-07-15T10:04:17.380Z,19.18
2016-07-15T10:05:16.683Z,19.23
2016-07-15T10:06:16.882Z,19.29
2016-07-15T10:07:18.565Z,19.32
2016-07-15T10:08:32.295Z,19.25
2016-07-15T10:09:16.712Z,19.4
2016-07-15T10:10:18.176Z,19.39
2016-07-15T10:11:18.175Z,19.46
2016-07-15T10:12:18.181Z,19.44
2016-07-15T10:13:18.206Z,19.41
2016-07-15T10:14:17.484Z,19.41
2016-07-15T10:15:16.772Z,19.54
2016-07-15T10:16:16.789Z,19.51
2016-07-15T10:17:16.815Z,19.65
2016-07-15T10:18:17.738Z,19.61
2016-07-15T10:19:17.768Z,19.62
2016-07-15T10:20:18.290Z,19.62
2016-07-15T10:21:16.834Z,19.77
2016-07-15T10:22:16.877Z,19.88
2016-07-15T10:23:16.881Z,19.83
2016-07-15T10:24:16.893Z,19.87
2016-07-15T10:25:16.886Z,19.87
2016-07-15T10:26:17.612Z,20.03
2016-07-15T10:27:17.620Z,20.01
2016-07-15T10:28:17.836Z,20.17
2016-07-15T10:29:16.929Z,20.24
2016-07-15T10:30:16.957Z,20.26
2016-07-15T10:31:18.422Z,20.29
2016-07-15T10:32:17.465Z,20.35
2016-07-15T10:33:16.982Z,20.33
2016-07-15T10:34:17.204Z,20.39
2016-07-15T10:35:18.155Z,20.33
2016-07-15T10:36:17.760Z,20.38
2016-07-15T10:37:17.763Z,20.32
2016-07-15T10:38:17.758Z,20.39
2016-07-15T10:39:17.793Z,20.41
2016-07-15T10:40:17.273Z,20.33
2016-07-15T10:41:17.078Z,20.29
2016-07-15T10:42:17.869Z,20.39
2016-07-15T10:43:17.838Z,20.38
2016-07-15T10:44:17.321Z,20.33
2016-07-15T10:45:17.866Z,20.36
2016-07-15T10:46:17.858Z,20.26
2016-07-15T10:47:17.196Z,20.26
2016-07-15T10:48:18.045Z,20.23
2016-07-15T10:49:18.123Z,20.14
2016-07-15T10:50:17.906Z,20.2
2016-07-15T10:51:17.917Z,20.17
2016-07-15T10:52:17.358Z,20.14
2016-07-15T10:53:18.677Z,20.1
2016-07-15T10:54:17.228Z,19.96
2016-07-15T10:55:17.980Z,19.99
2016-07-15T10:56:18.755Z,20.03
2016-07-15T10:57:17.264Z,19.96
2016-07-15T10:58:18.401Z,20.02
2016-07-15T10:59:32.157Z,19.98
2016-07-15T11:00:17.370Z,20.06
2016-07-15T11:01:18.542Z,20.06
2016-07-15T11:02:18.067Z,20.08
2016-07-15T11:03:17.350Z,20.08
2016-07-15T11:04:17.359Z,20.11
2016-07-15T11:05:17.378Z,20.11
2016-07-15T11:06:17.382Z,20.13
2016-07-15T11:07:17.579Z,20.16
2016-07-15T11:08:17.602Z,20.13
2016-07-15T11:09:17.611Z,20.14
2016-07-15T11:10:17.479Z,20.18
2016-07-15T11:11:18.647Z,20.2
2016-07-15T11:12:17.446Z,20.14
2016-07-15T11:13:17.466Z,20.08
2016-07-15T11:14:17.479Z,20.06
2016-07-15T11:15:17.796Z,20.02
2016-07-15T11:16:17.487Z,19.98
2016-07-15T11:17:18.835Z,19.96
2016-07-15T11:18:18.459Z,19.99
2016-07-15T11:19:18.491Z,19.94
2016-07-15T11:20:17.584Z,19.99
2016-07-15T11:21:18.005Z,19.99
2016-07-15T11:22:33.547Z,19.94
2016-07-15T11:23:17.799Z,19.98
2016-07-15T11:24:18.359Z,20.02
2016-07-15T11:25:17.620Z,20.11
2016-07-15T11:26:17.597Z,20.01
2016-07-15T11:27:17.658Z,20.11
2016-07-15T11:28:17.639Z,20.02
2016-07-15T11:29:17.706Z,19.95
2016-07-15T11:30:17.660Z,19.87
2016-07-15T11:31:18.397Z,19.84
2016-07-15T11:32:18.425Z,19.76
2016-07-15T11:33:17.711Z,19.74
2016-07-15T11:34:17.891Z,19.62
2016-07-15T11:35:18.477Z,19.66
2016-07-15T11:36:17.728Z,19.74
2016-07-15T11:37:18.437Z,19.62
2016-07-15T11:38:32.603Z,19.69
2016-07-15T11:39:17.797Z,19.59
2016-07-15T11:40:18.723Z,19.74
2016-07-15T11:41:19.438Z,19.63
2016-07-15T11:42:18.562Z,19.73
2016-07-15T11:43:18.528Z,19.8
2016-07-15T11:44:33.393Z,19.81
2016-07-15T11:45:19.169Z,19.78
2016-07-15T11:46:18.813Z,19.81
2016-07-15T11:47:17.846Z,19.94
2016-07-15T11:48:17.854Z,19.92
2016-07-15T11:49:18.601Z,19.94
2016-07-15T11:50:17.876Z,19.96
2016-07-15T11:51:18.802Z,20.02
2016-07-15T11:52:17.893Z,20.17
2016-07-15T11:53:17.933Z,20.16
2016-07-15T11:54:32.779Z,20.36
2016-07-15T11:55:18.911Z,20.41
2016-07-15T11:56:18.696Z,20.35
2016-07-15T11:57:17.972Z,20.54
2016-07-15T11:58:18.694Z,20.55
2016-07-15T11:59:17.973Z,20.77
2016-07-15T12:00:17.996Z,20.73
2016-07-15T12:01:17.995Z,20.8
2016-07-15T12:02:18.005Z,20.89
2016-07-15T12:03:18.821Z,20.88
2016-07-15T12:04:18.770Z,20.97
2016-07-15T12:05:18.832Z,21.03
2016-07-15T12:06:32.940Z,21.01
2016-07-15T12:08:19.048Z,20.91
2016-07-15T12:09:18.109Z,21.06
2016-07-15T12:10:18.115Z,21.03
2016-07-15T12:11:18.111Z,21.09
2016-07-15T12:12:33.086Z,21.06
2016-07-15T12:13:18.373Z,21.14
2016-07-15T12:14:18.888Z,21.07
2016-07-15T12:15:18.897Z,21.14
2016-07-15T12:16:18.188Z,21.14
2016-07-15T12:17:18.188Z,21.04
2016-07-15T12:18:19.012Z,21.03
2016-07-15T12:19:18.959Z,21.06
2016-07-15T12:20:18.428Z,20.98
2016-07-15T12:21:19.252Z,20.94
2016-07-15T12:22:18.260Z,20.95
2016-07-15T12:23:19.206Z,20.85
2016-07-15T12:24:18.298Z,20.76
2016-07-15T12:25:19.761Z,20.62
2016-07-15T12:26:19.753Z,20.58
2016-07-15T12:27:18.326Z,20.59
2016-07-15T12:29:18.333Z,20.62
2016-07-15T12:30:18.544Z,20.55
2016-07-15T12:31:18.558Z,20.61
2016-07-15T12:32:18.365Z,20.38
2016-07-15T12:33:18.383Z,20.47
2016-07-15T12:34:19.897Z,20.36
2016-07-15T12:35:19.553Z,20.36
2016-07-15T12:36:18.434Z,20.21
2016-07-15T12:37:19.143Z,20.23
2016-07-15T12:38:18.457Z,20.16
2016-07-15T12:39:33.517Z,20.06
2016-07-15T12:40:19.187Z,20.01
2016-07-15T12:41:19.264Z,19.91
2016-07-15T12:42:18.537Z,19.95
2016-07-15T12:43:18.497Z,19.81
2016-07-15T12:44:18.506Z,19.76
2016-07-15T12:45:19.527Z,19.73
2016-07-15T12:46:18.734Z,19.74
2016-07-15T12:47:18.740Z,19.66
2016-07-15T12:48:18.773Z,19.66
2016-07-15T12:49:19.245Z,19.61
2016-07-15T12:50:19.711Z,19.68
2016-07-15T12:52:19.537Z,19.65
2016-07-15T12:53:18.720Z,19.68
2016-07-15T12:54:19.745Z,19.65
2016-07-15T12:55:18.986Z,19.71
2016-07-15T12:56:18.990Z,19.66
2016-07-15T12:57:33.724Z,19.61
2016-07-15T12:58:19.817Z,19.65
2016-07-15T12:59:19.610Z,19.58
2016-07-15T13:00:19.449Z,19.58
2016-07-15T13:02:18.877Z,19.51
2016-07-15T13:03:19.341Z,19.51
2016-07-15T13:04:19.613Z,19.47
2016-07-15T13:05:19.642Z,19.46
2016-07-15T13:06:19.871Z,19.55
2016-07-15T13:07:18.968Z,19.54
2016-07-15T13:08:18.986Z,19.54
2016-07-15T13:09:19.705Z,19.48
2016-07-15T13:10:18.996Z,19.58
2016-07-15T13:11:33.980Z,19.56
2016-07-15T13:12:20.104Z,19.61
2016-07-15T13:13:19.248Z,19.69